Westwood, Indiana
Current Conditions -  °F | °C
As of 11:53 AM on Thursday 30 Oct 2014 (Local Time) from KMIE Reporting Station
Overcast Overcast  
Wind Chill: 47°   Ceiling: 3400
Heat Index: 47°   Visibility: 10mi
Dew Point: 32°   Wind: 0mph
Humidity: 56%   Direction: NA
Pressure: 30.16"   Gusts: NA
Location:  39.9231°N, 85.3444°W
Report Text: KMIE 301553Z 00000KT 10SM OVC034 08/00 A3016 RMK AO2 SLP214 T00830000
Loading
Personal Weather Stations






























Interactive Weather Map
Tropical Storm Tracking
New forecast layout! Learn more

10-Day Weather Forecast

Advertisements
Track Severe Weather on mobile